Time;durP1;ratioP1;P1;durP2;ratioP2;P2;SDS_P1;SDS_P2;PMS_P1;PMS_P2;Temp;Humidity;BMP_temperature;BMP_pressure;BME280_temperature;BME280_humidity;BME280_pressure;Samples;Min_cycle;Max_cycle;Signal;HPM_P1;HPM_P2
2021/12/24 00:00:14;;;;;;;57.30;34.10;;;2.30;62.20;;;;;;6337765;27;20319;-56
2021/12/24 00:03:18;;;;;;;56.73;34.93;;;2.20;62.10;;;;;;6334927;28;20361;-56
2021/12/24 00:06:22;;;;;;;56.13;33.47;;;2.20;62.00;;;;;;6323092;27;20240;-54
2021/12/24 00:09:30;;;;;;;58.97;35.17;;;2.30;62.00;;;;;;6334732;27;20492;-56
2021/12/24 00:12:36;;;;;;;62.47;35.17;;;2.50;62.00;;;;;;6335166;27;20320;-56
2021/12/24 00:15:52;;;;;;;62.40;34.07;;;2.30;61.90;;;;;;6351129;27;20224;-58
2021/12/24 00:19:00;;;;;;;64.50;35.00;;;2.30;61.80;;;;;;6358330;27;20232;-56
2021/12/24 00:22:31;;;;;;;63.07;35.90;;;2.30;62.60;;;;;;6358215;27;20326;-57
2021/12/24 00:35:35;;;;;;;62.40;34.13;;;2.40;62.20;;;;;;6355785;27;20266;-58
2021/12/24 00:38:39;;;;;;;56.70;33.10;;;2.30;62.20;;;;;;6358840;27;20322;-56
2021/12/24 00:41:42;;;;;;;64.13;35.20;;;2.30;62.10;;;;;;6361915;27;20231;-58
2021/12/24 00:44:45;;;;;;;60.13;35.03;;;2.60;62.40;;;;;;6359285;27;20305;-56
2021/12/24 00:47:49;;;;;;;61.67;35.50;;;2.50;62.60;;;;;;6357948;27;20231;-55
2021/12/24 00:51:06;;;;;;;59.43;34.43;;;2.30;62.40;;;;;;6359511;27;20250;-56
2021/12/24 00:57:31;;;;;;;59.63;33.77;;;2.50;62.40;;;;;;6335548;27;20253;-56
2021/12/24 01:00:37;;;;;;;61.67;35.10;;;2.60;62.60;;;;;;6359666;27;20264;-57
2021/12/24 01:03:41;;;;;;;63.37;35.33;;;2.40;62.70;;;;;;6358608;27;20273;-55
2021/12/24 01:06:44;;;;;;;55.60;33.20;;;2.50;62.40;;;;;;6334315;28;20254;-56
2021/12/24 01:09:49;;;;;;;58.77;34.63;;;2.60;62.30;;;;;;6358675;27;20287;-56
2021/12/24 01:12:52;;;;;;;67.97;34.67;;;2.80;63.10;;;;;;6358085;27;20235;-56
2021/12/24 01:16:01;;;;;;;65.63;34.43;;;2.50;62.20;;;;;;6351251;27;20247;-56
2021/12/24 01:19:09;;;;;;;60.37;34.10;;;2.80;63.20;;;;;;6359319;27;20236;-56
2021/12/24 01:22:49;;;;;;;61.10;33.17;;;2.50;62.10;;;;;;6349934;27;20228;-57
2021/12/24 01:25:50;;;;;;;61.03;33.77;;;2.60;62.20;;;;;;6333616;28;20284;-56
2021/12/24 01:29:29;;;;;;;62.77;34.80;;;2.50;62.10;;;;;;6334970;28;20297;-56
2021/12/24 01:39:15;;;;;;;60.03;32.90;;;2.60;62.70;;;;;;6343294;27;20234;-57
2021/12/24 01:45:47;;;;;;;60.60;32.40;;;3.00;62.20;;;;;;6340827;27;20273;-56
2021/12/24 01:48:50;;;;;;;56.70;32.67;;;2.60;62.80;;;;;;6356373;27;20236;-57
2021/12/24 01:51:54;;;;;;;48.77;30.60;;;2.90;62.40;;;;;;6360026;27;20292;-56
2021/12/24 01:54:56;;;;;;;52.67;31.37;;;2.80;62.80;;;;;;6344132;27;20243;-57
2021/12/24 01:58:00;;;;;;;60.43;33.60;;;3.10;62.60;;;;;;6338105;27;20344;-56
2021/12/24 02:01:03;;;;;;;56.13;29.83;;;3.00;62.30;;;;;;6337623;27;20353;-57
2021/12/24 02:04:07;;;;;;;50.83;29.80;;;3.10;62.90;;;;;;6338177;27;20252;-56
2021/12/24 02:07:10;;;;;;;47.83;28.73;;;2.90;62.30;;;;;;6338650;27;20874;-56
2021/12/24 02:10:15;;;;;;;46.67;29.03;;;2.90;62.20;;;;;;6337685;27;20232;-56
2021/12/24 02:13:19;;;;;;;48.60;28.90;;;3.00;62.40;;;;;;6338011;28;20277;-55
2021/12/24 02:16:37;;;;;;;41.47;26.60;;;2.90;62.20;;;;;;6358134;27;20368;-54
2021/12/24 02:29:43;;;;;;;43.17;26.00;;;3.30;63.30;;;;;;6339247;27;20259;-56
2021/12/24 02:32:46;;;;;;;41.00;25.80;;;3.10;62.60;;;;;;6336970;28;20727;-57
2021/12/24 02:35:49;;;;;;;41.93;26.73;;;3.00;62.80;;;;;;6348413;27;20314;-56
2021/12/24 02:38:53;;;;;;;40.83;25.70;;;3.00;63.30;;;;;;6362724;27;20859;-56
2021/12/24 02:41:57;;;;;;;38.90;24.83;;;3.30;62.50;;;;;;6362841;27;20318;-56
2021/12/24 02:44:59;;;;;;;38.80;24.47;;;3.00;62.00;;;;;;6355863;27;20794;-56
2021/12/24 02:48:24;;;;;;;37.10;23.57;;;3.30;62.30;;;;;;6361924;27;20238;-56
2021/12/24 02:54:51;;;;;;;40.67;25.70;;;3.10;62.70;;;;;;6338134;27;20382;-54
2021/12/24 02:57:54;;;;;;;39.20;23.93;;;3.10;62.00;;;;;;6337101;27;20234;-55
2021/12/24 03:00:57;;;;;;;36.40;24.17;;;3.50;62.40;;;;;;6336603;27;20444;-56
2021/12/24 03:04:00;;;;;;;38.83;24.47;;;3.10;62.00;;;;;;6337094;27;20579;-55
2021/12/24 03:07:03;;;;;;;39.50;24.37;;;3.20;62.00;;;;;;6335504;27;20297;-56
2021/12/24 03:10:12;;;;;;;36.73;23.50;;;3.20;62.10;;;;;;6335267;27;20312;-54
2021/12/24 03:13:16;;;;;;;37.07;22.83;;;3.50;62.50;;;;;;6349644;27;20364;-55
2021/12/24 03:16:19;;;;;;;36.97;25.13;;;3.30;62.10;;;;;;6355107;27;20722;-57
2021/12/24 03:19:25;;;;;;;32.73;22.20;;;3.40;62.10;;;;;;6361796;27;20235;-56
2021/12/24 03:22:40;;;;;;;35.33;23.17;;;3.40;62.10;;;;;;6358216;27;20255;-57
2021/12/24 03:25:44;;;;;;;35.93;22.47;;;3.60;62.30;;;;;;6362094;27;20525;-56
2021/12/24 03:28:47;;;;;;;31.07;22.03;;;3.50;62.10;;;;;;6348390;27;20772;-55
2021/12/24 03:31:50;;;;;;;32.80;21.30;;;3.60;62.00;;;;;;6348211;27;20314;-55
2021/12/24 03:34:53;;;;;;;31.40;21.33;;;3.40;62.10;;;;;;6348163;27;20236;-55
2021/12/24 03:37:56;;;;;;;28.77;21.13;;;3.60;62.00;;;;;;6353541;27;20708;-61
2021/12/24 03:41:00;;;;;;;30.93;20.00;;;3.70;62.30;;;;;;6361484;27;20502;-56
2021/12/24 03:44:04;;;;;;;28.37;20.50;;;3.50;62.20;;;;;;6359193;27;20235;-56
2021/12/24 03:47:11;;;;;;;28.73;20.10;;;3.70;62.90;;;;;;6360898;27;20239;-57
2021/12/24 03:50:14;;;;;;;31.13;20.80;;;3.70;62.30;;;;;;6360651;27;20231;-57
2021/12/24 03:56:40;;;;;;;33.63;21.03;;;3.90;62.50;;;;;;6335633;28;20223;-56
2021/12/24 03:59:43;;;;;;;31.00;20.70;;;3.80;62.50;;;;;;6335844;27;20227;-56
2021/12/24 04:02:47;;;;;;;32.93;22.23;;;3.80;61.70;;;;;;6336182;27;20281;-57
2021/12/24 04:05:50;;;;;;;30.87;20.70;;;4.00;62.30;;;;;;6335068;27;20239;-56
2021/12/24 04:08:54;;;;;;;31.33;21.67;;;3.80;62.30;;;;;;6335717;28;20765;-57
2021/12/24 04:11:58;;;;;;;30.13;21.13;;;3.80;62.10;;;;;;6335593;27;20421;-58
2021/12/24 04:15:00;;;;;;;30.07;21.47;;;3.90;62.00;;;;;;6336572;27;20340;-57
2021/12/24 04:18:11;;;;;;;30.90;21.63;;;4.00;61.90;;;;;;6357631;27;20498;-57
2021/12/24 04:24:54;;;;;;;30.17;20.77;;;3.90;62.20;;;;;;6360131;27;20372;-57
2021/12/24 04:27:59;;;;;;;27.23;19.27;;;4.00;62.60;;;;;;6347276;27;20623;-58
2021/12/24 04:31:02;;;;;;;28.70;20.17;;;3.80;62.30;;;;;;6334573;27;20228;-57
2021/12/24 04:34:06;;;;;;;29.17;19.03;;;4.00;62.80;;;;;;6331868;27;20385;-58
2021/12/24 04:37:50;;;;;;;30.13;19.53;;;4.20;62.30;;;;;;6350930;27;20349;-58
2021/12/24 04:51:14;;;;;;;29.10;19.23;;;4.10;61.60;;;;;;6344512;27;20320;-57
2021/12/24 05:01:26;;;;;;;28.00;18.13;;;4.20;61.80;;;;;;6353611;27;20241;-59
2021/12/24 05:04:33;;;;;;;29.80;18.90;;;4.30;61.90;;;;;;6350172;27;20235;-56
2021/12/24 05:08:06;;;;;;;30.93;18.10;;;4.30;61.80;;;;;;6348070;27;20249;-57
2021/12/24 05:11:12;;;;;;;26.90;17.63;;;4.50;62.30;;;;;;6342908;27;20238;-57
2021/12/24 05:14:15;;;;;;;25.00;17.03;;;4.40;62.20;;;;;;6355151;27;20264;-58
2021/12/24 05:17:26;;;;;;;25.20;17.00;;;4.30;62.20;;;;;;6354972;27;20630;-58
2021/12/24 05:23:49;;;;;;;21.33;15.37;;;4.50;62.40;;;;;;6351851;27;20243;-58
2021/12/24 05:26:54;;;;;;;19.97;14.83;;;4.60;62.50;;;;;;6359124;27;20508;-63
2021/12/24 05:29:57;;;;;;;19.03;15.50;;;4.60;62.30;;;;;;6363658;27;20310;-58
2021/12/24 05:33:01;;;;;;;16.73;14.17;;;4.50;62.10;;;;;;6356963;27;20244;-59
2021/12/24 05:36:04;;;;;;;17.47;13.43;;;4.50;62.20;;;;;;6356464;27;20318;-59
2021/12/24 05:39:08;;;;;;;16.37;14.23;;;5.00;62.70;;;;;;6358329;27;20496;-59
2021/12/24 05:42:10;;;;;;;16.83;13.20;;;4.70;62.60;;;;;;6367599;27;20290;-59
2021/12/24 05:45:13;;;;;;;14.97;12.80;;;4.80;62.40;;;;;;6377759;27;20231;-59
2021/12/24 05:48:17;;;;;;;13.43;11.20;;;5.00;62.70;;;;;;6362328;27;20231;-59
2021/12/24 05:51:20;;;;;;;13.50;11.43;;;5.00;62.70;;;;;;6361755;27;20603;-58
2021/12/24 05:54:23;;;;;;;11.23;10.23;;;4.70;62.50;;;;;;6363173;27;20227;-58
2021/12/24 05:57:27;;;;;;;10.90;9.90;;;5.10;62.80;;;;;;6363463;27;20359;-57
2021/12/24 06:00:30;;;;;;;10.47;9.47;;;5.10;63.00;;;;;;6364750;27;20231;-58
2021/12/24 06:03:34;;;;;;;10.30;9.33;;;4.90;62.70;;;;;;6361930;27;20386;-56
2021/12/24 06:06:37;;;;;;;9.17;8.37;;;5.20;63.10;;;;;;6360074;27;20261;-57
2021/12/24 06:09:39;;;;;;;9.13;8.33;;;5.10;63.10;;;;;;6363023;27;20696;-58
2021/12/24 06:12:42;;;;;;;8.80;8.10;;;5.20;63.00;;;;;;6357957;27;20322;-57
2021/12/24 06:15:45;;;;;;;8.30;7.80;;;5.10;63.10;;;;;;6360415;27;20330;-57
2021/12/24 06:18:50;;;;;;;8.07;7.47;;;5.20;62.90;;;;;;6362524;27;20361;-57
2021/12/24 06:21:52;;;;;;;8.47;7.87;;;5.30;63.70;;;;;;6358845;27;20596;-57
2021/12/24 06:24:55;;;;;;;7.67;7.20;;;5.30;63.80;;;;;;6361397;27;20310;-57
2021/12/24 06:27:58;;;;;;;7.73;7.23;;;5.50;63.80;;;;;;6361359;27;20241;-57
2021/12/24 06:31:01;;;;;;;7.30;6.90;;;5.30;64.00;;;;;;6360736;27;20775;-57
2021/12/24 06:34:07;;;;;;;7.40;6.93;;;5.60;64.30;;;;;;6355474;27;20585;-58
2021/12/24 06:37:10;;;;;;;7.67;7.07;;;5.40;64.20;;;;;;6358420;27;20731;-58
2021/12/24 06:40:13;;;;;;;7.23;6.83;;;5.40;64.20;;;;;;6359545;27;20247;-58
2021/12/24 06:43:16;;;;;;;7.47;7.00;;;5.30;64.20;;;;;;6356490;27;20518;-57
2021/12/24 06:46:19;;;;;;;7.23;6.90;;;5.30;64.30;;;;;;6359453;27;20393;-58
2021/12/24 06:49:27;;;;;;;6.63;6.33;;;5.50;64.30;;;;;;6360838;27;20238;-57
2021/12/24 06:52:30;;;;;;;6.77;6.47;;;5.50;64.40;;;;;;6360317;27;20662;-58
2021/12/24 06:55:33;;;;;;;6.73;6.43;;;5.50;64.50;;;;;;6360897;27;20234;-57
2021/12/24 06:58:36;;;;;;;7.37;6.97;;;5.50;64.40;;;;;;6361444;27;20235;-56
2021/12/24 07:01:38;;;;;;;6.83;6.47;;;5.80;64.70;;;;;;6361040;27;20291;-58
2021/12/24 07:04:43;;;;;;;5.80;5.60;;;5.60;64.50;;;;;;6361351;27;20899;-57
2021/12/24 07:07:46;;;;;;;6.13;5.90;;;5.60;64.50;;;;;;6360568;27;20325;-57
2021/12/24 07:10:49;;;;;;;5.60;5.40;;;5.60;64.50;;;;;;6360673;27;20696;-59
2021/12/24 07:13:51;;;;;;;6.20;5.90;;;5.70;64.50;;;;;;6360711;27;20235;-57
2021/12/24 07:16:54;;;;;;;5.53;5.43;;;5.60;64.50;;;;;;6354461;27;20431;-57
2021/12/24 07:19:58;;;;;;;5.40;5.20;;;5.80;64.70;;;;;;6360828;27;20242;-58
2021/12/24 07:23:01;;;;;;;5.73;5.53;;;5.70;64.60;;;;;;6359830;27;20459;-57
2021/12/24 07:26:04;;;;;;;5.33;5.23;;;5.70;64.70;;;;;;6353331;27;20753;-59
2021/12/24 07:29:06;;;;;;;4.83;4.73;;;5.80;64.80;;;;;;6360841;27;20224;-58
2021/12/24 07:32:10;;;;;;;4.80;4.70;;;5.90;65.00;;;;;;6358351;27;20315;-59
2021/12/24 07:35:14;;;;;;;5.00;4.80;;;5.70;64.70;;;;;;6358826;27;20581;-59
2021/12/24 07:38:16;;;;;;;4.60;4.50;;;5.90;65.00;;;;;;6356305;27;20369;-58
2021/12/24 07:41:19;;;;;;;4.40;4.30;;;5.90;65.00;;;;;;6354102;27;20621;-59
2021/12/24 07:44:22;;;;;;;4.57;4.47;;;5.80;64.80;;;;;;6356463;27;20227;-59
2021/12/24 07:47:32;;;;;;;4.40;4.20;;;5.80;64.80;;;;;;6359655;27;20390;-59
2021/12/24 07:54:00;;;;;;;4.60;4.50;;;5.90;65.10;;;;;;6355700;27;20261;-58
2021/12/24 07:57:03;;;;;;;4.60;4.50;;;6.00;65.00;;;;;;6359631;27;20231;-57
2021/12/24 08:00:13;;;;;;;4.53;4.40;;;6.00;65.20;;;;;;6360080;27;20257;-58
2021/12/24 08:03:16;;;;;;;4.40;4.30;;;5.90;65.10;;;;;;6356337;27;20224;-58
2021/12/24 08:06:20;;;;;;;4.20;4.10;;;5.90;65.20;;;;;;6358420;27;20235;-59
2021/12/24 08:09:23;;;;;;;4.07;4.07;;;5.90;65.10;;;;;;6353495;27;20699;-58
2021/12/24 08:12:26;;;;;;;4.63;4.53;;;6.00;65.30;;;;;;6357066;27;21003;-59
2021/12/24 08:15:29;;;;;;;4.67;4.57;;;5.90;65.90;;;;;;6351529;27;21005;-59
2021/12/24 08:18:31;;;;;;;4.47;4.37;;;6.00;65.30;;;;;;6355970;27;20778;-56
2021/12/24 08:21:35;;;;;;;4.27;4.17;;;6.20;65.40;;;;;;6351270;27;20238;-58
2021/12/24 08:24:39;;;;;;;4.50;4.40;;;6.00;65.30;;;;;;6358436;27;20673;-58
2021/12/24 08:27:42;;;;;;;4.43;4.33;;;6.20;65.50;;;;;;6357621;27;20525;-59
2021/12/24 08:30:45;;;;;;;4.60;4.33;;;6.00;65.30;;;;;;6359072;27;20307;-56
2021/12/24 08:33:48;;;;;;;5.00;4.80;;;6.10;65.40;;;;;;6354967;27;20236;-59
2021/12/24 08:36:53;;;;;;;4.10;4.00;;;6.20;65.50;;;;;;6356123;27;20235;-58
2021/12/24 08:39:56;;;;;;;4.40;4.30;;;6.00;65.30;;;;;;6348528;27;20259;-58
2021/12/24 08:43:00;;;;;;;4.10;4.10;;;6.20;65.40;;;;;;6351461;27;20314;-58
2021/12/24 08:46:03;;;;;;;4.10;4.10;;;6.20;65.50;;;;;;6354662;27;20275;-58
2021/12/24 08:49:06;;;;;;;4.20;4.00;;;6.10;65.40;;;;;;6348047;27;20377;-58
2021/12/24 08:52:10;;;;;;;4.23;4.23;;;6.10;65.40;;;;;;6347346;27;20330;-58
2021/12/24 08:55:14;;;;;;;3.97;3.97;;;6.20;65.50;;;;;;6343012;27;20299;-58
2021/12/24 08:58:17;;;;;;;4.47;4.37;;;6.20;65.60;;;;;;6345301;27;20385;-58
2021/12/24 09:01:19;;;;;;;3.87;3.87;;;6.40;65.70;;;;;;6360946;27;20561;-57
2021/12/24 09:04:23;;;;;;;3.50;3.50;;;6.30;65.70;;;;;;6349704;27;20717;-58
2021/12/24 09:07:27;;;;;;;3.90;3.83;;;6.50;65.70;;;;;;6360841;27;20737;-58
2021/12/24 09:10:30;;;;;;;3.50;3.50;;;6.30;65.60;;;;;;6359263;27;20264;-58
2021/12/24 09:13:32;;;;;;;3.60;3.60;;;6.30;65.50;;;;;;6361457;27;20323;-59
2021/12/24 09:16:36;;;;;;;3.80;3.70;;;6.30;65.50;;;;;;6360536;27;20239;-57
2021/12/24 09:19:45;;;;;;;3.90;3.90;;;6.40;65.50;;;;;;6360157;27;20227;-59
2021/12/24 09:22:49;;;;;;;4.10;4.00;;;6.40;65.50;;;;;;6361869;27;20547;-58
2021/12/24 09:25:52;;;;;;;3.80;3.80;;;6.30;65.40;;;;;;6361288;27;20625;-58
2021/12/24 09:28:55;;;;;;;3.90;3.90;;;6.30;65.30;;;;;;6360337;27;20757;-58
2021/12/24 09:31:58;;;;;;;3.60;3.60;;;6.30;65.20;;;;;;6362106;27;20271;-58
2021/12/24 09:35:01;;;;;;;3.70;3.60;;;6.30;65.20;;;;;;6356064;27;20246;-57
2021/12/24 09:38:05;;;;;;;3.63;3.57;;;6.30;65.20;;;;;;6362697;27;20231;-59
2021/12/24 09:41:08;;;;;;;3.67;3.57;;;6.20;65.10;;;;;;6358854;27;20232;-58
2021/12/24 09:44:12;;;;;;;3.67;3.67;;;6.30;65.00;;;;;;6361554;27;20268;-58
2021/12/24 09:47:15;;;;;;;3.70;3.70;;;6.30;64.80;;;;;;6360215;27;20237;-57
2021/12/24 09:50:21;;;;;;;3.70;3.70;;;6.20;64.70;;;;;;6359157;27;20585;-58
2021/12/24 09:53:25;;;;;;;3.50;3.50;;;6.30;64.60;;;;;;6360725;27;20330;-57
2021/12/24 09:56:28;;;;;;;3.90;3.70;;;6.30;64.70;;;;;;6363283;27;20228;-58
2021/12/24 09:59:30;;;;;;;3.63;3.63;;;6.20;64.70;;;;;;6361205;27;20751;-58
2021/12/24 10:02:40;;;;;;;3.37;3.37;;;6.30;64.70;;;;;;6362021;27;20279;-56
2021/12/24 10:05:46;;;;;;;3.70;3.60;;;6.30;64.70;;;;;;6360087;27;20255;-58
2021/12/24 10:09:00;;;;;;;4.20;4.10;;;6.20;64.20;;;;;;6353274;27;20223;-56
2021/12/24 10:12:06;;;;;;;3.57;3.57;;;6.30;64.40;;;;;;6363629;27;20312;-57
2021/12/24 10:15:12;;;;;;;3.50;3.50;;;6.30;64.40;;;;;;6360953;27;20248;-57
2021/12/24 10:18:27;;;;;;;3.73;3.73;;;6.30;64.40;;;;;;6363919;27;20232;-57
2021/12/24 10:21:32;;;;;;;3.97;3.87;;;6.30;64.30;;;;;;6363285;27;20368;-57
2021/12/24 10:24:36;;;;;;;3.90;3.80;;;6.20;63.70;;;;;;6356031;27;20373;-57
2021/12/24 10:27:39;;;;;;;4.03;4.00;;;6.30;63.90;;;;;;6363858;27;20276;-57
2021/12/24 10:30:42;;;;;;;4.10;3.87;;;6.30;64.00;;;;;;6363352;27;20822;-57
2021/12/24 10:34:14;;;;;;;4.20;4.10;;;6.50;64.10;;;;;;6354145;27;20970;-58
2021/12/24 10:37:22;;;;;;;4.07;3.97;;;6.30;63.80;;;;;;6354300;27;20791;-57
2021/12/24 10:40:30;;;;;;;4.10;4.00;;;6.20;63.70;;;;;;6346915;27;20474;-57
2021/12/24 10:43:35;;;;;;;3.70;3.70;;;6.60;63.70;;;;;;6339952;27;20801;-58
2021/12/24 10:46:38;;;;;;;3.97;3.87;;;6.70;62.80;;;;;;6358504;27;20314;-59
2021/12/24 10:49:59;;;;;;;3.90;3.90;;;6.70;63.10;;;;;;6345459;27;20242;-57
2021/12/24 10:53:17;;;;;;;3.50;3.50;;;6.50;62.60;;;;;;6354664;27;20376;-60
2021/12/24 10:56:26;;;;;;;3.37;3.37;;;6.50;62.00;;;;;;6356916;27;20308;-59
2021/12/24 10:59:40;;;;;;;3.43;3.23;;;6.60;61.40;;;;;;6379437;27;20219;-57
2021/12/24 11:02:43;;;;;;;3.47;3.30;;;6.40;59.70;;;;;;6366865;27;20296;-58
2021/12/24 11:05:47;;;;;;;3.03;3.03;;;6.60;60.70;;;;;;6361295;27;20314;-59
2021/12/24 11:08:55;;;;;;;3.03;3.03;;;6.30;59.20;;;;;;6360785;27;20324;-59
2021/12/24 11:11:59;;;;;;;3.10;3.10;;;6.40;59.70;;;;;;6354273;27;20324;-57
2021/12/24 11:15:01;;;;;;;3.20;3.10;;;6.30;59.60;;;;;;6353358;27;20322;-59
2021/12/24 11:18:07;;;;;;;3.10;3.10;;;6.30;59.70;;;;;;6358157;27;20598;-58
2021/12/24 11:21:11;;;;;;;3.30;3.30;;;6.20;59.80;;;;;;6358044;27;20237;-58
2021/12/24 11:24:14;;;;;;;3.07;3.07;;;6.10;60.00;;;;;;6359132;27;20355;-57
2021/12/24 11:27:18;;;;;;;3.33;3.33;;;6.20;60.10;;;;;;6359579;27;20280;-58
2021/12/24 11:30:22;;;;;;;3.10;3.10;;;6.00;60.00;;;;;;6353631;27;20231;-57
2021/12/24 11:33:30;;;;;;;3.17;3.17;;;6.10;59.90;;;;;;6359122;27;20360;-58
2021/12/24 11:36:32;;;;;;;3.10;3.10;;;6.00;59.30;;;;;;6359610;27;20231;-58
2021/12/24 11:39:35;;;;;;;3.27;3.27;;;6.00;59.30;;;;;;6359053;27;20648;-58
2021/12/24 11:42:40;;;;;;;4.00;3.90;;;5.90;57.70;;;;;;6358842;27;20235;-58
2021/12/24 11:45:43;;;;;;;3.57;3.57;;;6.10;59.50;;;;;;6354786;27;20683;-58
2021/12/24 11:48:48;;;;;;;4.00;3.93;;;5.90;59.00;;;;;;6354543;27;20243;-59
2021/12/24 11:51:52;;;;;;;3.30;3.30;;;6.10;59.50;;;;;;6360046;27;20326;-58
2021/12/24 11:54:55;;;;;;;3.10;3.10;;;6.00;57.40;;;;;;6358435;27;20308;-59
2021/12/24 11:58:02;;;;;;;3.10;3.10;;;5.80;57.70;;;;;;6359939;27;20688;-59
2021/12/24 12:01:06;;;;;;;3.03;2.93;;;5.80;53.50;;;;;;6343338;27;20322;-57
2021/12/24 12:04:14;;;;;;;2.90;2.90;;;5.40;52.70;;;;;;6360336;27;20223;-58
2021/12/24 12:07:18;;;;;;;3.20;3.20;;;5.40;53.50;;;;;;6360077;27;20273;-59
2021/12/24 12:10:52;;;;;;;3.20;3.20;;;5.40;55.10;;;;;;6360527;27;20270;-59
2021/12/24 12:13:59;;;;;;;3.40;3.40;;;5.20;55.60;;;;;;6356623;27;20718;-57
2021/12/24 12:17:05;;;;;;;3.13;3.10;;;5.30;56.30;;;;;;6352146;27;20391;-56
2021/12/24 12:20:15;;;;;;;3.27;3.20;;;5.10;54.80;;;;;;6355412;27;20533;-58
2021/12/24 12:27:19;;;;;;;3.20;3.20;;;4.80;53.50;;;;;;6345540;27;20965;-58
2021/12/24 12:30:27;;;;;;;3.10;3.10;;;4.90;52.80;;;;;;6359545;27;20230;-56
2021/12/24 12:33:34;;;;;;;3.23;3.20;;;4.70;52.80;;;;;;6360339;27;20231;-56
2021/12/24 12:36:40;;;;;;;3.10;3.10;;;4.80;54.10;;;;;;6358404;27;20364;-57
2021/12/24 12:39:44;;;;;;;3.20;3.20;;;4.50;53.60;;;;;;6347258;27;20289;-58
2021/12/24 12:43:07;;;;;;;3.20;3.20;;;4.40;55.30;;;;;;6355736;27;21862;-57
2021/12/24 12:46:20;;;;;;;3.50;3.50;;;4.40;55.70;;;;;;6354353;27;20235;-56
2021/12/24 12:49:33;;;;;;;3.43;3.37;;;4.40;55.50;;;;;;6357923;27;20231;-59
2021/12/24 12:52:36;;;;;;;3.70;3.60;;;4.40;55.80;;;;;;6358126;27;20996;-57
2021/12/24 12:55:40;;;;;;;3.50;3.50;;;4.30;55.60;;;;;;6360537;27;20235;-59
2021/12/24 12:58:44;;;;;;;3.77;3.67;;;4.40;56.80;;;;;;6354802;27;20268;-59
2021/12/24 13:01:52;;;;;;;3.60;3.60;;;4.30;54.40;;;;;;6348658;27;20317;-61
2021/12/24 13:05:10;;;;;;;3.93;3.73;;;4.00;51.30;;;;;;6359645;27;20243;-57
2021/12/24 13:08:15;;;;;;;3.73;3.70;;;4.00;52.20;;;;;;6357625;27;20227;-62
2021/12/24 13:11:20;;;;;;;3.90;3.90;;;4.10;52.20;;;;;;6360271;27;20322;-57
2021/12/24 13:14:25;;;;;;;4.27;4.17;;;4.20;53.60;;;;;;6354843;27;20228;-58
2021/12/24 13:17:35;;;;;;;5.03;4.93;;;3.90;53.70;;;;;;6357350;27;20259;-56
2021/12/24 13:22:26;;;;;;;4.90;4.80;;;3.90;52.20;;;;;;6359248;27;20740;-59
2021/12/24 13:24:12;;;;;;;5.60;5.50;;;4.00;51.10;;;;;;6350818;27;20237;-58
2021/12/24 13:27:16;;;;;;;6.23;5.93;;;3.80;52.60;;;;;;6355906;27;20249;-60
2021/12/24 13:30:21;;;;;;;5.50;5.37;;;3.70;52.40;;;;;;6359972;27;20778;-59
2021/12/24 13:33:25;;;;;;;5.40;5.20;;;3.70;51.60;;;;;;6359036;27;20227;-58
2021/12/24 13:36:30;;;;;;;5.43;5.33;;;3.40;52.00;;;;;;6353294;27;20534;-59
2021/12/24 13:39:33;;;;;;;5.20;5.10;;;3.60;53.70;;;;;;6358195;27;20276;-58
2021/12/24 13:42:46;;;;;;;5.87;5.67;;;3.50;53.10;;;;;;6357577;27;20315;-58
2021/12/24 13:45:52;;;;;;;5.37;5.17;;;3.40;54.10;;;;;;6351439;27;20224;-59
2021/12/24 13:55:39;;;;;;;5.83;5.63;;;3.30;53.30;;;;;;6363363;27;20262;-58
2021/12/24 13:58:49;;;;;;;6.03;5.83;;;3.40;54.00;;;;;;6362030;27;20734;-58
2021/12/24 14:01:53;;;;;;;6.60;6.30;;;3.40;53.30;;;;;;6362750;27;20596;-59
2021/12/24 14:05:01;;;;;;;6.23;6.03;;;3.10;53.20;;;;;;6362986;27;20858;-59
2021/12/24 14:08:07;;;;;;;6.70;6.40;;;3.20;54.40;;;;;;6362460;27;20284;-57
2021/12/24 14:11:12;;;;;;;7.00;6.70;;;3.10;54.10;;;;;;6358489;27;20863;-58
2021/12/24 14:14:21;;;;;;;6.70;6.50;;;3.30;54.50;;;;;;6361803;27;20249;-59
2021/12/24 14:17:48;;;;;;;7.87;7.37;;;3.10;54.70;;;;;;6361595;27;20312;-59
2021/12/24 14:24:12;;;;;;;6.97;6.67;;;2.90;55.60;;;;;;6360442;27;20231;-59
2021/12/24 14:27:18;;;;;;;7.93;7.43;;;2.90;56.80;;;;;;6362862;27;20235;-58
2021/12/24 14:30:22;;;;;;;7.20;6.90;;;3.00;56.70;;;;;;6359019;27;20254;-58
2021/12/24 14:33:25;;;;;;;8.07;7.53;;;3.20;57.00;;;;;;6336684;27;20242;-57
2021/12/24 14:36:29;;;;;;;7.60;7.20;;;2.90;56.70;;;;;;6332464;28;20242;-58
2021/12/24 14:39:44;;;;;;;7.67;7.27;;;3.10;56.10;;;;;;6331995;27;20795;-58
2021/12/24 14:42:51;;;;;;;7.50;7.20;;;3.00;56.20;;;;;;6325200;27;20236;-59
2021/12/24 14:45:54;;;;;;;7.40;7.10;;;2.90;56.30;;;;;;6331718;28;20330;-58
2021/12/24 14:49:04;;;;;;;7.83;7.43;;;2.70;56.50;;;;;;6332707;28;20242;-58
2021/12/24 14:52:20;;;;;;;7.97;7.57;;;2.80;55.90;;;;;;6354426;27;20247;-57
2021/12/24 14:55:24;;;;;;;8.00;7.60;;;2.80;55.90;;;;;;6360314;27;20231;-58
2021/12/24 14:58:32;;;;;;;7.90;7.50;;;2.70;55.70;;;;;;6358435;27;20295;-58
2021/12/24 15:01:42;;;;;;;7.77;7.37;;;2.80;56.60;;;;;;6361166;27;20858;-62
2021/12/24 15:04:55;;;;;;;8.10;7.70;;;2.70;56.50;;;;;;6361300;27;20226;-58
2021/12/24 15:08:00;;;;;;;7.67;7.27;;;2.40;55.70;;;;;;6357802;27;20311;-57
2021/12/24 15:11:09;;;;;;;7.67;7.37;;;2.50;55.90;;;;;;6361716;27;20327;-58
2021/12/24 15:14:14;;;;;;;8.23;7.80;;;2.60;56.80;;;;;;6358930;27;20243;-58
2021/12/24 15:17:16;;;;;;;7.87;7.37;;;2.30;56.20;;;;;;6359680;27;20376;-59
2021/12/24 15:20:20;;;;;;;8.83;8.23;;;2.40;56.40;;;;;;6353817;27;20253;-59
2021/12/24 15:23:24;;;;;;;8.37;7.90;;;2.20;56.30;;;;;;6358245;27;20239;-57
2021/12/24 15:26:29;;;;;;;8.43;8.03;;;2.40;57.10;;;;;;6361178;27;20246;-59
2021/12/24 15:29:31;;;;;;;8.80;8.30;;;2.30;57.40;;;;;;6347226;27;20276;-59
2021/12/24 15:32:34;;;;;;;8.90;8.40;;;2.10;57.30;;;;;;6333356;27;20232;-60
2021/12/24 15:35:37;;;;;;;8.67;8.17;;;2.20;57.70;;;;;;6324384;28;20341;-59
2021/12/24 15:38:42;;;;;;;9.90;9.23;;;2.40;58.90;;;;;;6339383;27;20235;-59
2021/12/24 15:41:47;;;;;;;9.30;8.73;;;2.40;58.30;;;;;;6358322;27;20231;-59
2021/12/24 15:44:50;;;;;;;9.80;9.20;;;2.50;58.30;;;;;;6354395;27;20269;-63
2021/12/24 15:47:53;;;;;;;10.93;10.10;;;2.20;57.90;;;;;;6357677;27;20718;-60
2021/12/24 15:50:57;;;;;;;11.07;10.17;;;2.20;58.00;;;;;;6360318;27;20859;-60
2021/12/24 15:54:01;;;;;;;10.23;9.53;;;2.20;58.60;;;;;;6360079;27;20332;-58
2021/12/24 15:57:05;;;;;;;10.83;10.13;;;2.10;57.90;;;;;;6357817;27;20227;-59
2021/12/24 16:00:08;;;;;;;11.20;10.37;;;2.10;58.90;;;;;;6359448;27;20223;-60
2021/12/24 16:03:12;;;;;;;11.00;10.10;;;2.30;58.40;;;;;;6359228;27;20307;-58
2021/12/24 16:06:16;;;;;;;10.27;9.57;;;2.30;59.10;;;;;;6338043;27;20280;-58
2021/12/24 16:09:21;;;;;;;10.33;9.63;;;2.30;58.20;;;;;;6346415;27;20232;-57
2021/12/24 16:12:26;;;;;;;10.67;9.87;;;2.20;58.30;;;;;;6350937;27;20728;-58
2021/12/24 16:15:33;;;;;;;10.87;9.97;;;2.20;57.80;;;;;;6353613;27;20220;-58
2021/12/24 16:18:36;;;;;;;11.03;10.17;;;2.20;58.90;;;;;;6349433;27;20236;-58
2021/12/24 16:21:39;;;;;;;11.17;10.37;;;2.20;58.20;;;;;;6333101;28;20228;-59
2021/12/24 16:24:44;;;;;;;11.77;10.77;;;2.40;58.70;;;;;;6336964;27;20306;-58
2021/12/24 16:27:46;;;;;;;11.93;10.93;;;2.30;58.40;;;;;;6357606;27;20650;-59
2021/12/24 16:30:49;;;;;;;12.07;11.20;;;2.20;57.90;;;;;;6358229;27;20237;-59
2021/12/24 16:33:52;;;;;;;11.90;10.90;;;2.20;58.40;;;;;;6340796;27;20747;-57
2021/12/24 16:36:55;;;;;;;12.03;10.93;;;2.30;58.10;;;;;;6330334;27;20243;-60
2021/12/24 16:39:59;;;;;;;12.87;11.77;;;2.30;58.00;;;;;;6321871;28;20254;-59
2021/12/24 16:43:07;;;;;;;12.03;11.03;;;2.20;58.00;;;;;;6325707;28;20246;-58
2021/12/24 16:46:09;;;;;;;12.47;11.47;;;2.20;58.40;;;;;;6327579;28;20624;-59
2021/12/24 16:49:12;;;;;;;13.43;12.23;;;2.20;58.10;;;;;;6331452;28;20227;-59
2021/12/24 16:52:16;;;;;;;13.43;12.43;;;2.30;57.70;;;;;;6341514;27;20219;-59
2021/12/24 16:55:23;;;;;;;13.47;12.17;;;2.20;58.30;;;;;;6358195;27;20291;-60
2021/12/24 16:58:26;;;;;;;12.87;11.73;;;2.30;58.30;;;;;;6357791;27;20327;-59
2021/12/24 17:01:29;;;;;;;12.97;11.77;;;2.30;56.10;;;;;;6336043;27;20268;-59
2021/12/24 17:04:31;;;;;;;13.93;12.60;;;2.30;56.50;;;;;;6336047;27;20368;-58
2021/12/24 17:07:34;;;;;;;13.87;12.63;;;2.40;56.80;;;;;;6358187;27;20311;-60
2021/12/24 17:10:39;;;;;;;14.80;13.10;;;2.20;56.80;;;;;;6345143;27;20709;-58
2021/12/24 17:13:42;;;;;;;17.70;12.87;;;2.50;57.50;;;;;;6329803;28;20302;-57
2021/12/24 17:16:45;;;;;;;13.93;12.73;;;2.60;56.40;;;;;;6329330;28;20330;-59
2021/12/24 17:19:48;;;;;;;15.47;13.93;;;2.50;56.80;;;;;;6332534;28;20228;-58
2021/12/24 17:22:52;;;;;;;13.97;12.67;;;2.20;56.20;;;;;;6330008;28;20232;-59
2021/12/24 17:25:58;;;;;;;14.60;13.20;;;2.30;56.90;;;;;;6346544;27;20251;-59
2021/12/24 17:29:01;;;;;;;14.40;12.90;;;2.60;56.40;;;;;;6337791;27;20310;-59